Time;durP1;ratioP1;P1;durP2;ratioP2;P2;SDS_P1;SDS_P2;PMS_P1;PMS_P2;Temp;Humidity;BMP_temperature;BMP_pressure;BME280_temperature;BME280_humidity;BME280_pressure;Samples;Min_cycle;Max_cycle;Signal;HPM_P1;HPM_P2
2022/02/26 00:01:58;;;;;;;12.32;8.25;;;8.20;52.10;;;;;;5026480;28;20037;-82
2022/02/26 00:04:24;;;;;;;13.57;8.40;;;8.20;52.10;;;;;;5027774;28;20042;-82
2022/02/26 00:06:50;;;;;;;10.85;7.97;;;8.20;52.20;;;;;;5026115;28;20404;-82
2022/02/26 00:09:16;;;;;;;12.02;8.20;;;8.20;52.20;;;;;;5027651;28;20507;-81
2022/02/26 00:11:42;;;;;;;13.77;8.52;;;8.20;52.20;;;;;;5041869;28;20029;-82
2022/02/26 00:14:08;;;;;;;13.80;8.43;;;8.20;52.20;;;;;;5028214;28;20112;-84
2022/02/26 00:16:34;;;;;;;15.95;8.15;;;8.20;52.10;;;;;;5042569;28;20389;-84
2022/02/26 00:19:01;;;;;;;14.30;8.68;;;8.20;52.20;;;;;;5009952;28;20528;-82
2022/02/26 00:21:27;;;;;;;13.73;8.95;;;8.20;52.20;;;;;;5010053;28;20037;-82
2022/02/26 00:23:52;;;;;;;13.27;8.00;;;8.20;52.20;;;;;;5027978;28;20049;-81
2022/02/26 00:26:22;;;;;;;11.27;8.40;;;8.20;52.30;;;;;;5027045;28;20034;-83
2022/02/26 00:28:48;;;;;;;12.18;8.18;;;8.20;52.20;;;;;;5042655;28;20049;-81
2022/02/26 00:31:16;;;;;;;12.50;8.40;;;8.20;52.30;;;;;;5026466;28;20174;-83
2022/02/26 00:33:43;;;;;;;12.23;8.40;;;8.20;52.30;;;;;;5026976;28;20517;-82
2022/02/26 00:36:10;;;;;;;14.27;9.20;;;8.10;52.30;;;;;;5027025;28;20061;-83
2022/02/26 00:38:36;;;;;;;15.05;8.93;;;8.20;52.30;;;;;;5026172;28;20039;-83
2022/02/26 00:41:01;;;;;;;15.90;9.35;;;8.20;52.30;;;;;;5027288;28;20029;-80
2022/02/26 00:43:28;;;;;;;14.07;8.90;;;8.20;52.30;;;;;;5028326;28;20044;-81
2022/02/26 00:45:54;;;;;;;14.80;9.27;;;8.10;52.30;;;;;;5041452;28;20037;-82
2022/02/26 00:49:46;;;;;;;15.05;9.10;;;8.10;52.40;;;;;;5023845;28;20060;-82
2022/02/26 00:51:05;;;;;;;14.32;9.15;;;8.10;52.40;;;;;;5025091;28;20060;-79
2022/02/26 00:53:31;;;;;;;12.90;9.30;;;8.10;52.40;;;;;;5043947;28;20423;-81
2022/02/26 00:55:58;;;;;;;13.07;9.00;;;8.10;52.40;;;;;;5045986;28;20190;-81
2022/02/26 00:58:24;;;;;;;14.95;9.85;;;8.10;52.40;;;;;;5044973;28;20570;-82
2022/02/26 01:00:49;;;;;;;14.45;9.55;;;8.10;52.50;;;;;;5043050;28;20033;-80
2022/02/26 01:03:15;;;;;;;13.27;8.70;;;8.10;52.50;;;;;;5044988;28;20037;-82
2022/02/26 01:05:42;;;;;;;14.30;9.07;;;8.10;52.60;;;;;;5028687;28;20276;-82
2022/02/26 01:08:09;;;;;;;16.70;9.38;;;8.10;52.60;;;;;;5046619;28;20048;-84
2022/02/26 01:10:35;;;;;;;13.15;9.13;;;8.10;52.60;;;;;;5046474;28;20492;-80
2022/02/26 01:13:00;;;;;;;14.05;8.85;;;8.10;52.60;;;;;;5046055;28;20048;-80
2022/02/26 01:15:26;;;;;;;15.95;9.73;;;8.10;52.60;;;;;;5028302;28;20040;-79
2022/02/26 01:17:52;;;;;;;14.65;9.15;;;8.10;52.70;;;;;;5046867;28;20044;-80
2022/02/26 01:20:19;;;;;;;15.07;9.25;;;8.10;52.70;;;;;;5045184;28;20494;-82
2022/02/26 01:22:45;;;;;;;13.18;9.85;;;8.10;52.70;;;;;;5046599;28;20558;-81
2022/02/26 01:25:11;;;;;;;15.05;9.60;;;8.10;52.70;;;;;;5011600;28;20047;-82
2022/02/26 01:27:39;;;;;;;14.10;9.77;;;8.10;52.70;;;;;;5045935;28;20091;-79
2022/02/26 01:30:08;;;;;;;16.02;10.02;;;8.10;52.80;;;;;;5027362;28;20037;-81
2022/02/26 01:32:35;;;;;;;15.02;9.80;;;8.00;52.70;;;;;;5027659;28;20040;-79
2022/02/26 01:35:02;;;;;;;12.93;8.85;;;8.00;52.80;;;;;;5046227;28;20123;-80
2022/02/26 01:37:28;;;;;;;12.65;8.95;;;8.00;52.80;;;;;;5044319;28;20036;-82
2022/02/26 01:39:54;;;;;;;14.15;9.60;;;8.00;52.80;;;;;;5027893;28;20044;-82
2022/02/26 01:42:21;;;;;;;13.32;9.20;;;8.10;52.80;;;;;;5046358;28;20079;-82
2022/02/26 01:44:49;;;;;;;14.65;9.32;;;8.00;52.80;;;;;;5045073;28;20033;-82
2022/02/26 01:47:16;;;;;;;12.85;8.82;;;8.00;52.80;;;;;;5045872;28;20033;-82
2022/02/26 01:49:42;;;;;;;15.07;9.48;;;8.10;52.90;;;;;;5044849;28;20419;-82
2022/02/26 01:52:09;;;;;;;17.48;9.40;;;8.00;52.90;;;;;;5044885;28;20060;-81
2022/02/26 01:54:36;;;;;;;13.43;9.48;;;8.10;52.90;;;;;;5045352;28;20526;-82
2022/02/26 01:57:04;;;;;;;16.13;10.65;;;8.00;52.90;;;;;;5044915;28;20037;-82
2022/02/26 01:59:31;;;;;;;13.82;8.70;;;8.00;52.80;;;;;;5026880;28;20029;-81
2022/02/26 02:01:57;;;;;;;13.13;9.25;;;8.00;53.40;;;;;;5027455;28;20033;-79
2022/02/26 02:04:23;;;;;;;14.65;9.48;;;8.00;52.80;;;;;;5045263;28;20095;-83
2022/02/26 02:06:49;;;;;;;12.75;8.38;;;8.00;52.80;;;;;;5011338;28;20033;-83
2022/02/26 02:09:15;;;;;;;17.45;9.85;;;8.00;52.90;;;;;;5027152;28;20025;-82
2022/02/26 02:11:42;;;;;;;13.82;8.68;;;8.00;52.90;;;;;;5026511;28;20037;-81
2022/02/26 02:14:07;;;;;;;13.68;9.20;;;8.00;52.90;;;;;;5045936;28;20566;-81
2022/02/26 02:16:37;;;;;;;13.63;8.73;;;8.00;53.00;;;;;;5010587;28;20119;-82
2022/02/26 02:19:08;;;;;;;13.02;9.43;;;8.00;53.00;;;;;;5044675;28;20033;-81
2022/02/26 02:21:34;;;;;;;12.25;8.40;;;8.00;53.00;;;;;;5044197;28;20037;-80
2022/02/26 02:24:01;;;;;;;11.90;8.80;;;8.00;53.10;;;;;;5027969;28;20049;-79
2022/02/26 02:26:28;;;;;;;13.02;8.80;;;8.00;53.10;;;;;;5046795;28;20108;-80
2022/02/26 02:28:54;;;;;;;12.27;7.82;;;8.00;53.10;;;;;;5044094;28;20082;-79
2022/02/26 02:31:20;;;;;;;11.45;8.63;;;8.00;53.10;;;;;;5026367;28;20094;-80
2022/02/26 02:33:48;;;;;;;13.88;9.18;;;8.00;53.10;;;;;;5044958;28;20033;-81
2022/02/26 02:36:14;;;;;;;13.27;8.88;;;8.00;53.10;;;;;;5027083;28;20488;-80
2022/02/26 02:38:40;;;;;;;18.15;8.93;;;7.90;53.10;;;;;;5026885;28;20029;-82
2022/02/26 02:41:06;;;;;;;11.35;8.13;;;7.90;53.10;;;;;;5027240;28;20479;-81
2022/02/26 02:43:33;;;;;;;12.93;8.88;;;8.00;53.10;;;;;;5028506;28;20492;-82
2022/02/26 02:45:59;;;;;;;13.40;8.95;;;8.00;53.10;;;;;;5043478;28;20058;-81
2022/02/26 02:48:26;;;;;;;13.48;9.25;;;8.00;53.20;;;;;;5010871;28;20060;-81
2022/02/26 02:50:53;;;;;;;12.45;8.43;;;8.00;53.10;;;;;;5044319;28;20399;-78
2022/02/26 02:53:19;;;;;;;12.75;7.82;;;8.00;53.20;;;;;;5042982;28;20044;-78
2022/02/26 02:55:49;;;;;;;12.20;8.40;;;8.00;53.20;;;;;;5044734;28;20033;-80
2022/02/26 02:58:22;;;;;;;12.70;8.18;;;8.00;53.20;;;;;;5044272;28;20464;-81
2022/02/26 03:00:49;;;;;;;13.38;8.23;;;8.00;53.20;;;;;;5028178;28;20037;-82
2022/02/26 03:03:15;;;;;;;15.60;7.78;;;8.00;53.20;;;;;;5048075;28;20484;-82
2022/02/26 03:05:41;;;;;;;13.57;8.23;;;8.00;53.20;;;;;;5048482;28;20044;-81
2022/02/26 03:08:07;;;;;;;12.55;7.78;;;8.00;53.90;;;;;;5049124;28;20550;-79
2022/02/26 03:10:33;;;;;;;10.95;8.02;;;8.00;53.30;;;;;;5048629;28;20061;-81
2022/02/26 03:12:59;;;;;;;9.18;6.80;;;7.90;53.90;;;;;;5047782;28;20049;-77
2022/02/26 03:15:25;;;;;;;13.48;8.20;;;7.90;53.30;;;;;;5047669;28;20152;-79
2022/02/26 03:17:51;;;;;;;11.45;8.07;;;8.00;53.40;;;;;;5048183;28;20116;-78
2022/02/26 03:20:18;;;;;;;10.98;7.32;;;8.00;53.40;;;;;;5014036;28;20036;-77
2022/02/26 03:22:45;;;;;;;14.45;7.93;;;8.00;53.50;;;;;;5014342;28;20086;-83
2022/02/26 03:25:11;;;;;;;13.57;7.70;;;7.90;53.40;;;;;;5030986;28;20080;-80
2022/02/26 03:27:37;;;;;;;11.10;7.57;;;8.00;53.50;;;;;;5048457;28;20037;-80
2022/02/26 03:30:06;;;;;;;9.85;7.07;;;7.90;53.40;;;;;;5046942;28;20116;-79
2022/02/26 03:32:32;;;;;;;11.32;7.68;;;7.90;53.40;;;;;;5048578;28;20120;-82
2022/02/26 03:34:58;;;;;;;12.57;7.78;;;8.00;53.50;;;;;;5046476;28;20080;-79
2022/02/26 03:37:27;;;;;;;10.57;7.72;;;7.90;53.50;;;;;;5047890;28;20135;-82
2022/02/26 03:39:54;;;;;;;11.52;8.15;;;7.90;53.50;;;;;;5012081;28;20066;-79
2022/02/26 03:42:20;;;;;;;11.32;7.65;;;7.90;53.50;;;;;;5047703;28;20059;-81
2022/02/26 03:44:50;;;;;;;12.32;7.88;;;7.90;53.50;;;;;;5049008;28;20128;-79
2022/02/26 03:47:17;;;;;;;10.35;7.38;;;7.90;53.50;;;;;;5029070;28;20028;-82
2022/02/26 03:49:48;;;;;;;11.38;7.30;;;7.90;53.60;;;;;;5030086;28;20115;-80
2022/02/26 03:52:14;;;;;;;10.98;7.10;;;7.90;53.60;;;;;;5047648;28;20124;-80
2022/02/26 03:54:40;;;;;;;11.23;7.72;;;7.90;53.60;;;;;;5029437;28;20071;-82
2022/02/26 03:57:07;;;;;;;10.05;7.53;;;7.90;53.60;;;;;;5047132;28;20040;-81
2022/02/26 03:59:33;;;;;;;9.82;6.95;;;7.90;53.60;;;;;;5049003;28;20021;-81
2022/02/26 04:01:59;;;;;;;11.90;7.30;;;7.90;53.60;;;;;;5023540;28;20571;-79
2022/02/26 04:04:24;;;;;;;11.30;7.70;;;7.90;53.60;;;;;;5029521;28;20094;-82
2022/02/26 04:06:51;;;;;;;10.35;7.63;;;7.90;53.60;;;;;;5047643;28;20041;-79
2022/02/26 04:09:17;;;;;;;10.98;7.35;;;7.90;53.70;;;;;;5014170;28;20026;-80
2022/02/26 04:11:44;;;;;;;11.10;7.85;;;7.90;53.70;;;;;;5029700;28;20029;-79
2022/02/26 04:14:10;;;;;;;10.73;7.78;;;7.90;53.70;;;;;;5047663;28;20044;-78
2022/02/26 04:16:36;;;;;;;10.98;7.70;;;7.90;53.70;;;;;;5046620;28;20040;-78
2022/02/26 04:19:02;;;;;;;11.35;7.57;;;7.90;53.70;;;;;;5028627;28;20048;-78
2022/02/26 04:21:29;;;;;;;11.38;8.18;;;7.90;53.70;;;;;;5047739;28;20033;-80
2022/02/26 04:23:56;;;;;;;12.75;7.35;;;7.90;53.70;;;;;;5029362;28;20068;-81
2022/02/26 04:26:22;;;;;;;14.13;8.15;;;7.90;53.90;;;;;;5029241;28;20529;-79
2022/02/26 04:28:53;;;;;;;10.88;7.97;;;7.90;53.90;;;;;;5047541;28;20176;-81
2022/02/26 04:31:19;;;;;;;12.65;7.70;;;7.90;53.90;;;;;;5046241;28;20481;-80
2022/02/26 04:33:46;;;;;;;12.20;7.68;;;7.90;54.10;;;;;;5046579;28;20820;-80
2022/02/26 04:36:12;;;;;;;11.15;7.82;;;7.90;54.20;;;;;;5046766;28;20037;-79
2022/02/26 04:38:39;;;;;;;12.68;8.13;;;7.90;54.20;;;;;;5028679;28;21068;-79
2022/02/26 04:41:06;;;;;;;10.75;7.30;;;7.90;54.30;;;;;;5046845;28;20037;-81
2022/02/26 04:43:33;;;;;;;12.38;7.95;;;7.90;54.40;;;;;;5028407;28;20488;-80
2022/02/26 04:45:59;;;;;;;13.20;8.23;;;7.90;54.50;;;;;;5023542;28;20037;-81
2022/02/26 04:48:26;;;;;;;9.52;7.13;;;7.90;54.60;;;;;;5046273;28;20063;-82
2022/02/26 04:50:52;;;;;;;10.85;7.57;;;7.90;54.60;;;;;;5027863;28;20514;-81
2022/02/26 04:53:18;;;;;;;13.65;7.93;;;7.90;54.70;;;;;;5047158;28;20044;-79
2022/02/26 04:55:44;;;;;;;12.75;7.65;;;7.90;54.80;;;;;;5046759;28;20055;-81
2022/02/26 04:58:10;;;;;;;13.07;7.72;;;7.90;54.80;;;;;;5046376;28;20483;-82
2022/02/26 05:00:36;;;;;;;11.90;8.32;;;7.90;54.90;;;;;;5045706;28;20033;-82
2022/02/26 05:03:02;;;;;;;12.50;8.38;;;7.90;54.90;;;;;;5044911;28;20468;-81
2022/02/26 05:05:28;;;;;;;11.30;7.63;;;7.90;55.00;;;;;;5027727;28;20033;-81
2022/02/26 05:07:54;;;;;;;13.18;8.43;;;7.80;55.10;;;;;;5044533;28;20516;-81
2022/02/26 05:10:20;;;;;;;11.57;7.68;;;7.80;55.20;;;;;;5043400;28;20026;-81
2022/02/26 05:12:46;;;;;;;13.25;8.50;;;7.80;55.20;;;;;;5028428;28;20029;-81
2022/02/26 05:15:13;;;;;;;10.80;7.72;;;7.90;55.30;;;;;;5046547;28;20086;-82
2022/02/26 05:17:40;;;;;;;10.70;7.65;;;7.90;55.30;;;;;;5046416;28;20093;-80
2022/02/26 05:20:08;;;;;;;12.38;7.43;;;7.80;55.20;;;;;;5045170;28;20515;-82
2022/02/26 05:22:35;;;;;;;10.43;8.15;;;7.90;55.20;;;;;;5046571;28;20033;-82
2022/02/26 05:25:08;;;;;;;13.65;8.23;;;7.90;55.20;;;;;;5045088;28;20676;-81
2022/02/26 05:27:34;;;;;;;11.18;8.50;;;7.90;55.20;;;;;;5046053;28;20043;-80
2022/02/26 05:30:00;;;;;;;13.40;8.30;;;7.90;55.30;;;;;;5045898;28;20037;-81
2022/02/26 05:32:26;;;;;;;12.40;7.90;;;7.90;55.30;;;;;;5046270;28;20462;-81
2022/02/26 05:34:52;;;;;;;14.30;8.25;;;8.00;55.30;;;;;;5045763;28;20032;-82
2022/02/26 05:37:19;;;;;;;10.77;7.60;;;8.00;55.30;;;;;;5045501;28;20177;-80
2022/02/26 05:39:46;;;;;;;11.48;8.07;;;8.00;55.30;;;;;;5027739;28;20087;-79
2022/02/26 05:42:12;;;;;;;12.65;8.15;;;8.00;55.30;;;;;;5042785;28;20361;-79
2022/02/26 05:44:37;;;;;;;11.45;8.65;;;8.00;55.30;;;;;;5045476;28;20173;-77
2022/02/26 05:47:04;;;;;;;12.65;8.68;;;8.10;55.40;;;;;;5027995;28;20021;-80
2022/02/26 05:49:30;;;;;;;12.50;8.95;;;8.10;55.50;;;;;;5045796;28;20098;-79
2022/02/26 05:51:56;;;;;;;13.05;8.43;;;8.10;55.50;;;;;;5044778;28;20041;-79
2022/02/26 05:54:22;;;;;;;12.77;9.02;;;8.10;55.40;;;;;;5044850;28;20041;-80
2022/02/26 05:56:48;;;;;;;13.32;9.02;;;8.20;55.50;;;;;;5026448;28;20479;-80
2022/02/26 05:59:14;;;;;;;14.60;9.55;;;8.20;55.40;;;;;;5027804;28;20124;-79
2022/02/26 06:01:40;;;;;;;15.07;9.43;;;8.20;55.40;;;;;;5044389;28;20056;-78
2022/02/26 06:04:06;;;;;;;15.00;8.80;;;8.30;55.50;;;;;;5043196;28;20071;-79
2022/02/26 06:06:32;;;;;;;11.48;8.60;;;8.30;55.40;;;;;;5044499;28;20406;-80
2022/02/26 06:08:58;;;;;;;14.45;9.20;;;8.30;55.50;;;;;;5044774;28;20032;-77
2022/02/26 06:11:24;;;;;;;13.15;8.52;;;8.30;55.50;;;;;;5044654;28;20040;-81
2022/02/26 06:13:50;;;;;;;12.30;8.65;;;8.40;55.60;;;;;;5045289;28;20046;-80
2022/02/26 06:16:16;;;;;;;14.60;9.07;;;8.30;55.50;;;;;;5044100;28;20112;-80
2022/02/26 06:18:42;;;;;;;11.82;8.48;;;8.30;55.60;;;;;;5043846;28;20041;-76
2022/02/26 06:21:08;;;;;;;13.52;8.93;;;8.30;55.60;;;;;;5043583;28;20122;-79
2022/02/26 06:23:34;;;;;;;13.02;9.13;;;8.40;55.70;;;;;;5027684;28;20037;-79
2022/02/26 06:26:00;;;;;;;12.57;8.25;;;8.40;55.70;;;;;;5042898;28;20906;-81
2022/02/26 06:28:26;;;;;;;14.30;9.90;;;8.30;55.70;;;;;;5043713;28;20037;-80
2022/02/26 06:30:52;;;;;;;12.50;8.55;;;8.30;55.80;;;;;;5040418;28;20044;-81
2022/02/26 06:33:17;;;;;;;14.50;9.30;;;8.30;55.80;;;;;;5026162;28;20691;-81
2022/02/26 06:35:44;;;;;;;13.85;9.13;;;8.30;55.80;;;;;;5043720;28;20037;-76
2022/02/26 06:38:10;;;;;;;14.68;9.18;;;8.40;55.90;;;;;;5049401;28;20037;-78
2022/02/26 06:40:36;;;;;;;15.90;10.20;;;8.40;55.90;;;;;;5049100;28;20044;-81
2022/02/26 06:43:03;;;;;;;13.63;9.10;;;8.40;56.00;;;;;;5048037;28;20040;-79
2022/02/26 06:45:29;;;;;;;12.55;9.07;;;8.40;56.00;;;;;;5047834;28;20479;-80
2022/02/26 06:47:55;;;;;;;12.25;9.02;;;8.40;56.10;;;;;;5048050;28;20045;-80
2022/02/26 06:50:21;;;;;;;12.13;8.48;;;8.40;56.10;;;;;;5047798;28;20029;-80
2022/02/26 06:52:47;;;;;;;11.32;8.63;;;8.40;56.10;;;;;;5044297;28;20053;-79
2022/02/26 06:55:13;;;;;;;14.00;9.00;;;8.40;56.10;;;;;;5047363;28;20325;-80
2022/02/26 06:57:40;;;;;;;13.52;9.15;;;8.40;56.10;;;;;;5030520;28;20242;-77
2022/02/26 07:00:07;;;;;;;14.63;9.60;;;8.40;56.20;;;;;;5029427;28;20264;-78
2022/02/26 07:02:34;;;;;;;13.85;9.20;;;8.40;56.30;;;;;;5047661;28;20102;-81
2022/02/26 07:05:00;;;;;;;14.05;9.43;;;8.40;56.30;;;;;;5046593;28;20048;-79
2022/02/26 07:07:26;;;;;;;15.15;8.68;;;8.40;56.30;;;;;;5047316;28;20124;-79
2022/02/26 07:09:52;;;;;;;14.73;9.65;;;8.40;56.30;;;;;;5047890;28;20127;-76
2022/02/26 07:12:19;;;;;;;13.05;8.93;;;8.40;56.30;;;;;;5047914;28;20048;-76
2022/02/26 07:14:46;;;;;;;15.93;9.43;;;8.40;56.30;;;;;;5029541;28;20028;-79
2022/02/26 07:17:12;;;;;;;11.82;8.85;;;8.40;56.40;;;;;;5047307;28;20064;-76
2022/02/26 07:19:38;;;;;;;14.82;9.57;;;8.40;56.40;;;;;;5029382;28;20116;-76
2022/02/26 07:22:04;;;;;;;12.82;9.32;;;8.50;56.50;;;;;;5030698;28;20033;-77
2022/02/26 07:24:30;;;;;;;14.88;8.90;;;8.40;56.50;;;;;;5047294;28;20036;-77
2022/02/26 07:26:56;;;;;;;10.43;8.13;;;8.50;56.50;;;;;;5047376;28;20037;-78
2022/02/26 07:29:22;;;;;;;12.73;9.45;;;8.50;56.50;;;;;;5047118;28;20673;-79
2022/02/26 07:31:48;;;;;;;12.23;8.65;;;8.50;56.50;;;;;;5030267;28;20040;-79
2022/02/26 07:34:14;;;;;;;15.20;9.40;;;8.50;56.50;;;;;;5030546;28;20427;-79
2022/02/26 07:36:40;;;;;;;13.32;8.80;;;8.50;56.60;;;;;;5045541;28;20037;-78
2022/02/26 07:39:07;;;;;;;13.48;8.32;;;8.50;56.50;;;;;;5046593;28;20143;-79
2022/02/26 07:41:33;;;;;;;13.80;8.02;;;8.60;56.60;;;;;;5030699;28;20025;-78
2022/02/26 07:43:59;;;;;;;14.00;8.68;;;8.60;56.50;;;;;;5030337;28;20041;-77
2022/02/26 07:46:25;;;;;;;13.05;7.88;;;8.60;56.60;;;;;;5047639;28;20040;-75
2022/02/26 07:48:51;;;;;;;15.82;8.15;;;8.60;57.30;;;;;;5048260;28;20033;-75
2022/02/26 07:51:17;;;;;;;12.15;7.90;;;8.60;57.40;;;;;;5029366;28;20494;-74
2022/02/26 07:53:44;;;;;;;14.77;8.45;;;8.60;57.10;;;;;;5047432;28;20049;-76
2022/02/26 07:56:11;;;;;;;12.63;8.07;;;8.60;56.90;;;;;;5030687;28;20040;-77
2022/02/26 07:58:37;;;;;;;15.73;8.15;;;8.60;56.80;;;;;;5041950;28;20090;-76
2022/02/26 08:01:03;;;;;;;14.00;7.53;;;8.60;56.70;;;;;;5029226;28;20033;-77
2022/02/26 08:03:30;;;;;;;9.77;6.50;;;8.60;56.60;;;;;;5030148;28;20029;-76
2022/02/26 08:05:56;;;;;;;10.52;6.78;;;8.60;56.50;;;;;;5029372;28;20123;-76
2022/02/26 08:08:22;;;;;;;8.88;6.55;;;8.60;56.40;;;;;;5047127;28;20029;-76
2022/02/26 08:10:49;;;;;;;8.43;6.05;;;8.70;56.40;;;;;;5028708;28;20040;-75
2022/02/26 08:13:15;;;;;;;11.00;5.93;;;8.70;56.30;;;;;;5046782;28;20045;-76
2022/02/26 08:15:42;;;;;;;9.80;5.95;;;8.70;56.30;;;;;;5045046;28;20091;-76
2022/02/26 08:18:09;;;;;;;9.35;5.30;;;8.70;56.30;;;;;;5047075;28;20483;-76
2022/02/26 08:20:35;;;;;;;8.32;5.50;;;8.70;56.20;;;;;;5041044;28;20476;-76
2022/02/26 08:23:01;;;;;;;9.77;5.22;;;8.70;56.20;;;;;;5047035;28;20040;-76
2022/02/26 08:25:27;;;;;;;11.88;5.38;;;8.70;56.20;;;;;;5046137;28;20048;-76
2022/02/26 08:27:53;;;;;;;7.28;4.82;;;8.70;56.20;;;;;;5046883;28;20461;-77
2022/02/26 08:30:20;;;;;;;8.50;5.13;;;8.70;56.10;;;;;;5028795;28;20044;-75
2022/02/26 08:32:46;;;;;;;6.20;4.22;;;8.70;56.00;;;;;;5046379;28;20034;-76
2022/02/26 08:35:14;;;;;;;7.47;4.75;;;8.70;56.00;;;;;;5046524;28;20491;-76
2022/02/26 08:37:40;;;;;;;7.13;4.45;;;8.70;55.90;;;;;;5044208;28;20411;-75
2022/02/26 08:40:08;;;;;;;9.13;4.65;;;8.70;55.90;;;;;;5045214;28;20029;-76
2022/02/26 08:42:35;;;;;;;7.38;4.20;;;8.70;55.90;;;;;;5046558;28;20033;-76
2022/02/26 08:45:02;;;;;;;6.43;4.20;;;8.80;55.90;;;;;;5044166;28;20037;-76
2022/02/26 08:47:29;;;;;;;6.63;4.07;;;8.70;55.80;;;;;;5045361;28;20032;-77
2022/02/26 08:49:56;;;;;;;6.50;4.10;;;8.80;55.90;;;;;;5028995;28;20052;-76
2022/02/26 08:52:23;;;;;;;7.30;4.32;;;8.80;55.90;;;;;;5045308;28;20608;-76
2022/02/26 08:54:49;;;;;;;6.10;4.80;;;8.80;55.90;;;;;;5045925;28;20066;-77
2022/02/26 08:57:15;;;;;;;6.20;4.25;;;8.80;55.90;;;;;;5046558;28;20037;-78
2022/02/26 08:59:41;;;;;;;11.57;4.85;;;8.80;55.90;;;;;;5045445;28;20639;-76
2022/02/26 09:02:08;;;;;;;9.85;4.60;;;8.80;55.90;;;;;;5047765;28;20032;-77
2022/02/26 09:04:34;;;;;;;8.05;4.30;;;8.80;55.90;;;;;;5046856;28;20452;-75
2022/02/26 09:07:00;;;;;;;5.90;4.13;;;8.80;55.80;;;;;;5045856;28;20043;-77
2022/02/26 09:09:26;;;;;;;8.40;4.18;;;8.90;55.90;;;;;;5044279;28;20029;-79
2022/02/26 09:11:54;;;;;;;6.68;4.28;;;8.90;55.90;;;;;;5022267;28;20513;-80
2022/02/26 09:14:20;;;;;;;7.70;4.60;;;8.90;55.80;;;;;;5010547;28;20091;-78
2022/02/26 09:16:46;;;;;;;10.75;4.50;;;8.90;55.80;;;;;;5026944;28;20032;-80
2022/02/26 09:19:12;;;;;;;6.32;4.30;;;8.90;55.80;;;;;;5027022;28;20139;-80
2022/02/26 09:21:38;;;;;;;7.13;4.20;;;8.90;55.80;;;;;;5045245;28;20132;-79
2022/02/26 09:24:05;;;;;;;7.55;4.32;;;8.90;55.70;;;;;;5045117;28;20052;-79
2022/02/26 09:26:31;;;;;;;8.38;4.50;;;9.00;55.70;;;;;;5025871;28;20041;-80
2022/02/26 09:28:57;;;;;;;7.80;4.28;;;9.00;55.70;;;;;;5022628;28;20037;-79
2022/02/26 09:31:23;;;;;;;8.68;5.07;;;9.00;55.70;;;;;;5041114;28;20087;-80
2022/02/26 09:33:52;;;;;;;8.93;5.22;;;9.00;55.70;;;;;;5042271;28;20539;-80
2022/02/26 09:36:18;;;;;;;8.63;5.13;;;9.00;55.70;;;;;;5042658;28;20036;-80
2022/02/26 09:38:44;;;;;;;8.27;5.22;;;9.00;55.70;;;;;;5043768;28;20043;-79
2022/02/26 09:41:11;;;;;;;9.05;5.65;;;9.00;55.70;;;;;;5044644;28;20029;-81
2022/02/26 09:43:37;;;;;;;12.48;5.25;;;9.00;55.70;;;;;;5010303;28;20044;-81
2022/02/26 09:46:04;;;;;;;11.38;5.35;;;9.00;55.70;;;;;;5010832;28;20087;-81
2022/02/26 09:48:31;;;;;;;10.52;5.90;;;9.10;55.80;;;;;;5044039;28;20041;-80
2022/02/26 09:51:01;;;;;;;8.95;6.28;;;9.10;55.70;;;;;;5043204;28;20038;-79
2022/02/26 09:53:27;;;;;;;10.48;5.55;;;9.10;55.70;;;;;;5038029;28;20044;-80
2022/02/26 09:55:55;;;;;;;7.72;5.30;;;9.10;55.70;;;;;;5026606;28;20819;-81
2022/02/26 09:58:22;;;;;;;8.23;5.50;;;9.10;55.70;;;;;;5040550;28;20031;-81
2022/02/26 10:00:48;;;;;;;7.50;5.07;;;9.10;55.70;;;;;;5009703;28;20040;-80
2022/02/26 10:03:29;;;;;;;7.47;4.60;;;9.20;55.80;;;;;;5045182;28;20033;-82
2022/02/26 10:06:20;;;;;;;6.00;4.38;;;9.20;55.70;;;;;;5026924;28;20048;-80
2022/02/26 10:08:48;;;;;;;6.93;4.25;;;9.20;55.60;;;;;;5011020;28;20028;-78
2022/02/26 10:11:35;;;;;;;6.20;3.60;;;9.20;55.40;;;;;;5045185;28;20590;-79
2022/02/26 10:14:10;;;;;;;7.72;3.40;;;9.20;55.30;;;;;;5025560;28;20446;-79
2022/02/26 10:16:42;;;;;;;6.65;3.50;;;9.20;55.20;;;;;;5009784;28;20073;-77
2022/02/26 10:19:08;;;;;;;5.88;3.50;;;9.20;55.10;;;;;;5025066;28;20036;-77
2022/02/26 10:21:36;;;;;;;4.28;2.95;;;9.20;55.10;;;;;;5042494;28;20057;-78
2022/02/26 10:24:02;;;;;;;5.78;3.03;;;9.20;55.10;;;;;;5042765;28;20044;-76
2022/02/26 10:26:28;;;;;;;5.85;3.30;;;9.20;55.00;;;;;;5043924;28;20032;-80
2022/02/26 10:29:11;;;;;;;8.48;2.92;;;9.20;55.10;;;;;;5043653;28;20127;-78
2022/02/26 10:31:48;;;;;;;7.60;3.20;;;9.20;55.00;;;;;;5042838;28;20072;-79
2022/02/26 10:34:30;;;;;;;3.08;2.55;;;9.20;54.90;;;;;;5025875;28;20038;-81
2022/02/26 10:37:07;;;;;;;5.88;2.95;;;9.20;54.90;;;;;;5043217;28;20106;-77
2022/02/26 10:39:46;;;;;;;4.05;2.90;;;9.20;55.00;;;;;;5042697;28;20037;-78
2022/02/26 10:42:23;;;;;;;4.20;2.75;;;9.20;55.20;;;;;;5041262;28;20033;-77
2022/02/26 10:45:22;;;;;;;5.20;2.90;;;9.20;56.10;;;;;;5043220;28;20036;-78
2022/02/26 10:47:49;;;;;;;4.80;2.92;;;9.20;57.50;;;;;;4946839;28;20089;-78
2022/02/26 10:50:23;;;;;;;6.18;3.30;;;9.30;58.40;;;;;;4962660;28;20105;-78
2022/02/26 10:53:01;;;;;;;9.20;4.15;;;9.30;59.10;;;;;;4961760;28;20046;-78
2022/02/26 10:55:52;;;;;;;6.85;3.50;;;9.30;59.60;;;;;;4962104;28;20034;-77
2022/02/26 10:58:23;;;;;;;10.65;3.42;;;9.40;59.90;;;;;;4961274;28;20035;-78
2022/02/26 11:00:52;;;;;;;6.25;3.40;;;9.40;60.00;;;;;;4961434;28;20034;-77
2022/02/26 11:03:18;;;;;;;5.32;3.42;;;9.40;59.90;;;;;;4961872;28;20038;-77
2022/02/26 11:05:45;;;;;;;7.85;3.45;;;9.50;60.00;;;;;;4946640;28;20038;-78
2022/02/26 11:08:15;;;;;;;5.65;3.30;;;9.50;59.90;;;;;;4962655;28;20398;-77
2022/02/26 11:10:44;;;;;;;6.50;4.00;;;9.50;59.90;;;;;;4961239;28;20031;-77
2022/02/26 11:13:11;;;;;;;7.25;4.22;;;9.60;60.00;;;;;;4930389;28;20118;-77
2022/02/26 11:15:38;;;;;;;8.90;4.38;;;9.60;60.00;;;;;;4946039;28;20569;-77
2022/02/26 11:18:05;;;;;;;7.93;4.22;;;9.70;60.10;;;;;;4945891;28;20572;-77
2022/02/26 11:20:33;;;;;;;6.75;3.80;;;9.70;60.10;;;;;;4945652;28;20058;-77
2022/02/26 11:23:00;;;;;;;7.80;4.00;;;9.70;60.10;;;;;;4989058;28;20038;-77
2022/02/26 11:25:27;;;;;;;6.68;4.10;;;9.70;60.40;;;;;;5025730;28;20397;-78
2022/02/26 11:27:53;;;;;;;7.25;3.78;;;9.70;60.60;;;;;;5027154;28;20569;-77
2022/02/26 11:30:26;;;;;;;6.80;3.50;;;9.80;60.90;;;;;;5028072;28;20703;-77
2022/02/26 11:32:52;;;;;;;6.10;3.65;;;9.80;61.10;;;;;;5027950;28;20029;-78
2022/02/26 11:35:20;;;;;;;6.10;3.55;;;9.80;61.00;;;;;;5027437;28;20116;-77
2022/02/26 11:37:48;;;;;;;7.53;3.53;;;9.80;61.00;;;;;;5042456;28;20026;-77
2022/02/26 11:40:15;;;;;;;4.53;3.05;;;9.80;60.80;;;;;;5027128;28;20575;-77
2022/02/26 11:42:42;;;;;;;7.30;3.40;;;9.90;60.70;;;;;;5022252;28;20060;-77
2022/02/26 11:45:08;;;;;;;10.90;2.95;;;9.90;60.60;;;;;;5026361;28;20095;-77
2022/02/26 11:47:57;;;;;;;5.55;2.65;;;9.90;60.50;;;;;;5025997;28;20053;-77
2022/02/26 11:50:35;;;;;;;7.50;3.88;;;10.00;60.50;;;;;;5042115;28;20071;-76
2022/02/26 11:53:10;;;;;;;7.38;3.05;;;10.00;60.40;;;;;;5038511;28;20056;-77
2022/02/26 11:56:03;;;;;;;8.75;2.95;;;10.00;60.20;;;;;;5046707;28;20033;-77
2022/02/26 11:58:33;;;;;;;4.60;2.80;;;10.10;60.30;;;;;;5024630;28;20033;-76
2022/02/26 12:01:08;;;;;;;5.78;2.83;;;10.10;60.40;;;;;;5046448;28;20041;-79
2022/02/26 12:03:44;;;;;;;3.45;2.78;;;10.10;60.40;;;;;;5046122;28;20039;-84
2022/02/26 12:06:10;;;;;;;6.75;2.72;;;10.10;60.40;;;;;;5046405;28;20135;-83
2022/02/26 12:08:55;;;;;;;5.97;3.22;;;10.20;60.60;;;;;;5031425;28;20414;-85
2022/02/26 12:11:21;;;;;;;7.15;2.97;;;10.20;60.70;;;;;;5049390;28;20033;-81
2022/02/26 12:13:55;;;;;;;4.57;2.90;;;10.20;60.70;;;;;;5047377;28;20380;-82
2022/02/26 12:16:21;;;;;;;6.20;2.63;;;10.20;60.80;;;;;;5048713;28;20036;-81
2022/02/26 12:18:55;;;;;;;4.43;2.50;;;10.30;60.70;;;;;;5048151;28;20029;-82
2022/02/26 12:21:22;;;;;;;5.80;2.83;;;10.20;60.70;;;;;;5027946;28;20033;-82
2022/02/26 12:24:13;;;;;;;7.13;3.90;;;10.30;60.80;;;;;;5046087;28;20060;-83
2022/02/26 12:26:59;;;;;;;6.25;3.35;;;10.30;60.80;;;;;;5047145;28;20998;-81
2022/02/26 12:29:48;;;;;;;;;;;10.30;60.60;;;;;;5035967;28;20036;-83
2022/02/26 12:32:15;;;;;;;7.00;3.55;;;10.40;60.60;;;;;;5045549;28;19939;-83
2022/02/26 12:34:59;;;;;;;9.30;3.78;;;10.40;60.50;;;;;;5045386;28;20138;-82
2022/02/26 12:37:46;;;;;;;5.70;2.97;;;10.40;60.40;;;;;;5045054;28;20037;-82
2022/02/26 12:40:21;;;;;;;6.60;2.75;;;10.40;60.40;;;;;;5027654;28;20507;-83
2022/02/26 12:42:49;;;;;;;7.33;3.47;;;10.40;60.40;;;;;;5040901;28;20156;-83
2022/02/26 12:45:19;;;;;;;8.10;3.30;;;10.40;60.50;;;;;;5044895;28;20045;-83
2022/02/26 12:47:46;;;;;;;9.82;3.75;;;10.40;60.70;;;;;;5046397;28;20041;-84
2022/02/26 12:50:16;;;;;;;8.23;3.15;;;10.40;60.80;;;;;;5046398;28;20037;-82
2022/02/26 12:52:43;;;;;;;10.05;3.95;;;10.50;61.40;;;;;;5044227;28;20041;-81
2022/02/26 12:55:15;;;;;;;13.23;4.22;;;10.50;60.50;;;;;;5028136;28;20532;-82